Time;durP1;ratioP1;P1;durP2;ratioP2;P2;SDS_P1;SDS_P2;PMS_P1;PMS_P2;Temp;Humidity;BMP_temperature;BMP_pressure;BME280_temperature;BME280_humidity;BME280_pressure;Samples;Min_cycle;Max_cycle;Signal;HPM_P1;HPM_P2
2021/05/31 00:00:17;;;;;;;1.10;0.90;;;;;;;;;;5091605;28;20211;-71
2021/05/31 00:02:44;;;;;;;1.10;0.90;;;;;;;;;;5090284;28;20258;-71
2021/05/31 00:05:10;;;;;;;1.23;0.90;;;;;;;;;;5090484;28;20208;-71
2021/05/31 00:07:37;;;;;;;5.60;0.80;;;;;;;;;;5091167;28;20211;-72
2021/05/31 00:10:04;;;;;;;1.53;0.97;;;;;;;;;;5090951;28;20228;-71
2021/05/31 00:12:31;;;;;;;1.40;1.20;;;;;;;;;;5090401;28;20547;-71
2021/05/31 00:14:58;;;;;;;3.67;1.13;;;;;;;;;;5090665;28;20204;-72
2021/05/31 00:17:26;;;;;;;3.60;1.47;;;;;;;;;;5091351;28;20237;-71
2021/05/31 00:19:53;;;;;;;1.33;0.90;;;;;;;;;;5091158;28;20247;-69
2021/05/31 00:22:21;;;;;;;1.70;1.20;;;;;;;;;;5090969;28;20748;-71
2021/05/31 00:24:48;;;;;;;1.27;1.17;;;;;;;;;;5090567;28;20300;-69
2021/05/31 00:27:15;;;;;;;1.20;1.10;;;;;;;;;;5091256;28;20204;-70
2021/05/31 00:29:42;;;;;;;1.43;1.10;;;;;;;;;;5090930;28;20315;-72
2021/05/31 00:32:09;;;;;;;2.23;1.30;;;;;;;;;;5091219;28;20196;-72
2021/05/31 00:34:36;;;;;;;2.67;1.00;;;;;;;;;;5090439;28;20308;-71
2021/05/31 00:37:03;;;;;;;2.77;1.43;;;;;;;;;;5090855;28;20201;-71
2021/05/31 00:39:30;;;;;;;2.50;1.40;;;;;;;;;;5090868;28;20229;-71
2021/05/31 00:41:56;;;;;;;1.67;0.90;;;;;;;;;;5090849;28;20311;-71
2021/05/31 00:44:23;;;;;;;1.37;1.27;;;;;;;;;;5082676;28;20244;-71
2021/05/31 00:46:50;;;;;;;1.63;1.00;;;;;;;;;;5070214;28;20213;-71
2021/05/31 00:49:17;;;;;;;1.73;1.20;;;;;;;;;;5070531;28;20229;-70
2021/05/31 00:51:45;;;;;;;2.33;1.40;;;;;;;;;;5070221;28;20201;-71
2021/05/31 00:54:12;;;;;;;1.20;1.10;;;;;;;;;;5070456;28;20201;-72
2021/05/31 00:56:40;;;;;;;1.40;1.30;;;;;;;;;;5069766;28;20205;-71
2021/05/31 01:34:07;;;;;;;4.00;1.57;;;;;;;;;;5107873;27;20522;-69
2021/05/31 01:36:37;;;;;;;1.23;1.10;;;;;;;;;;5107354;28;20230;-70
2021/05/31 01:39:04;;;;;;;7.43;1.73;;;;;;;;;;5106536;28;20318;-69
2021/05/31 01:41:31;;;;;;;1.33;1.10;;;;;;;;;;5107814;28;20290;-70
2021/05/31 01:43:58;;;;;;;5.33;1.40;;;;;;;;;;5107282;28;20288;-70
2021/05/31 01:46:24;;;;;;;1.23;0.83;;;;;;;;;;5107284;28;20306;-70
2021/05/31 01:48:51;;;;;;;1.50;1.33;;;;;;;;;;5107529;28;20899;-70
2021/05/31 01:51:19;;;;;;;1.97;1.50;;;;;;;;;;5124657;28;20203;-69
2021/05/31 01:53:46;;;;;;;1.37;1.20;;;;;;;;;;5127994;27;20227;-70
2021/05/31 01:56:13;;;;;;;1.57;1.20;;;;;;;;;;5127616;27;20199;-69
2021/05/31 01:58:40;;;;;;;1.23;1.00;;;;;;;;;;5126747;28;20669;-71
2021/05/31 02:01:08;;;;;;;0.77;0.70;;;;;;;;;;5128295;27;20199;-70
2021/05/31 02:03:34;;;;;;;1.10;1.00;;;;;;;;;;5128245;27;20205;-70
2021/05/31 02:06:01;;;;;;;1.47;0.90;;;;;;;;;;5127796;27;20302;-69
2021/05/31 02:08:27;;;;;;;4.50;1.23;;;;;;;;;;5127550;27;20233;-69
2021/05/31 02:10:56;;;;;;;1.07;0.93;;;;;;;;;;5124384;27;20216;-69
2021/05/31 02:13:27;;;;;;;1.37;1.27;;;;;;;;;;5107150;28;20223;-69
2021/05/31 02:15:57;;;;;;;2.37;1.30;;;;;;;;;;5106722;28;20200;-69
2021/05/31 02:18:37;;;;;;;1.97;1.13;;;;;;;;;;5107023;28;20224;-69
2021/05/31 02:21:06;;;;;;;0.87;0.80;;;;;;;;;;5107307;28;20279;-69
2021/05/31 02:23:33;;;;;;;0.93;0.80;;;;;;;;;;5106987;28;20789;-69
2021/05/31 02:26:00;;;;;;;3.20;1.50;;;;;;;;;;5106435;28;20204;-69
2021/05/31 02:28:26;;;;;;;1.43;1.17;;;;;;;;;;5105568;28;20228;-68
2021/05/31 02:30:53;;;;;;;2.27;1.47;;;;;;;;;;5107139;28;20294;-70
2021/05/31 02:33:22;;;;;;;1.57;0.90;;;;;;;;;;5106738;28;20224;-70
2021/05/31 02:35:49;;;;;;;1.97;1.40;;;;;;;;;;5105318;28;20208;-70
2021/05/31 02:38:18;;;;;;;8.77;1.13;;;;;;;;;;5106924;28;20255;-69
2021/05/31 02:40:45;;;;;;;2.97;1.70;;;;;;;;;;5106876;28;20207;-69
2021/05/31 02:43:11;;;;;;;1.30;1.20;;;;;;;;;;5106361;28;20214;-68
2021/05/31 02:45:38;;;;;;;1.53;1.37;;;;;;;;;;5092044;28;20200;-70
2021/05/31 02:48:05;;;;;;;2.60;1.20;;;;;;;;;;5092725;28;20299;-72
2021/05/31 02:50:32;;;;;;;1.30;1.13;;;;;;;;;;5093053;28;20240;-70
2021/05/31 02:52:59;;;;;;;1.50;1.30;;;;;;;;;;5093090;28;20760;-71
2021/05/31 02:55:27;;;;;;;1.60;1.37;;;;;;;;;;5092539;28;20307;-71
2021/05/31 02:57:53;;;;;;;2.73;1.70;;;;;;;;;;5092950;28;20200;-70
2021/05/31 03:00:21;;;;;;;2.13;1.23;;;;;;;;;;5092621;28;20228;-70
2021/05/31 03:02:47;;;;;;;1.70;1.10;;;;;;;;;;5092578;28;20200;-70
2021/05/31 03:05:15;;;;;;;1.80;1.30;;;;;;;;;;5091021;28;20263;-70
2021/05/31 03:07:45;;;;;;;1.90;1.60;;;;;;;;;;5092508;28;20299;-70
2021/05/31 03:10:13;;;;;;;1.30;1.07;;;;;;;;;;5092771;28;20317;-71
2021/05/31 03:12:40;;;;;;;6.43;1.30;;;;;;;;;;5092433;28;20784;-71
2021/05/31 03:15:08;;;;;;;4.20;1.77;;;;;;;;;;5073998;28;20275;-70
2021/05/31 03:17:34;;;;;;;1.83;1.27;;;;;;;;;;5092621;28;20200;-70
2021/05/31 03:20:05;;;;;;;1.77;1.10;;;;;;;;;;5092358;28;20229;-70
2021/05/31 03:22:31;;;;;;;2.30;1.53;;;;;;;;;;5091350;28;20208;-71
2021/05/31 03:24:57;;;;;;;2.77;1.23;;;;;;;;;;5091650;28;20214;-71
2021/05/31 03:27:27;;;;;;;1.73;1.33;;;;;;;;;;5091793;28;20825;-72
2021/05/31 03:29:53;;;;;;;1.53;1.20;;;;;;;;;;5090312;28;20224;-71
2021/05/31 03:32:20;;;;;;;1.67;1.10;;;;;;;;;;5091907;28;20216;-72
2021/05/31 03:34:46;;;;;;;1.30;1.00;;;;;;;;;;5091012;28;20673;-71
2021/05/31 03:37:12;;;;;;;1.70;1.30;;;;;;;;;;5091873;28;20771;-72
2021/05/31 03:39:39;;;;;;;2.63;1.30;;;;;;;;;;5091744;28;20221;-71
2021/05/31 03:42:06;;;;;;;2.37;1.33;;;;;;;;;;5091784;28;20236;-71
2021/05/31 03:44:32;;;;;;;1.90;1.37;;;;;;;;;;5080723;28;20211;-71
2021/05/31 03:46:58;;;;;;;2.00;1.17;;;;;;;;;;5071556;28;20207;-71
2021/05/31 03:49:25;;;;;;;2.63;1.40;;;;;;;;;;5072949;28;20324;-70
2021/05/31 03:51:51;;;;;;;1.90;1.37;;;;;;;;;;5111909;28;20298;-71
2021/05/31 03:54:17;;;;;;;3.90;1.87;;;;;;;;;;5110153;28;20308;-69
2021/05/31 03:56:44;;;;;;;1.43;1.30;;;;;;;;;;5110625;28;20211;-72
2021/05/31 03:59:10;;;;;;;2.90;1.20;;;;;;;;;;5111499;28;20250;-70
2021/05/31 04:01:37;;;;;;;1.80;1.37;;;;;;;;;;5111805;28;20214;-70
2021/05/31 04:04:05;;;;;;;2.57;1.37;;;;;;;;;;5110247;28;20696;-71
2021/05/31 04:06:54;;;;;;;2.60;1.57;;;;;;;;;;5111073;28;20692;-71
2021/05/31 04:12:06;;;;;;;1.47;1.23;;;;;;;;;;5111808;28;20207;-71
2021/05/31 04:14:32;;;;;;;2.33;1.33;;;;;;;;;;5110968;28;20227;-70
2021/05/31 04:16:59;;;;;;;5.53;1.70;;;;;;;;;;5111726;28;20204;-71
2021/05/31 04:19:28;;;;;;;2.90;1.33;;;;;;;;;;5111593;28;20637;-70
2021/05/31 04:21:55;;;;;;;2.57;1.67;;;;;;;;;;5111259;28;20833;-71
2021/05/31 04:24:21;;;;;;;1.93;1.40;;;;;;;;;;5110872;28;20295;-71
2021/05/31 04:26:48;;;;;;;2.07;1.43;;;;;;;;;;5111182;28;20214;-71
2021/05/31 04:29:17;;;;;;;2.30;1.50;;;;;;;;;;5109937;28;20666;-69
2021/05/31 04:31:44;;;;;;;2.37;1.63;;;;;;;;;;5110966;28;20214;-70
2021/05/31 04:34:11;;;;;;;2.00;1.30;;;;;;;;;;5110929;28;20227;-69
2021/05/31 04:36:39;;;;;;;2.40;1.50;;;;;;;;;;5110158;28;20203;-70
2021/05/31 04:39:07;;;;;;;1.90;1.60;;;;;;;;;;5110721;28;20255;-69
2021/05/31 04:41:33;;;;;;;1.83;1.40;;;;;;;;;;5101363;28;20230;-69
2021/05/31 04:44:00;;;;;;;1.50;1.40;;;;;;;;;;5085898;28;20201;-70
2021/05/31 04:46:29;;;;;;;2.03;1.73;;;;;;;;;;5069270;28;20220;-72
2021/05/31 04:48:56;;;;;;;1.70;1.30;;;;;;;;;;5069956;28;20404;-68
2021/05/31 04:51:25;;;;;;;5.53;1.73;;;;;;;;;;5104358;28;20287;-71
2021/05/31 04:53:53;;;;;;;2.03;1.40;;;;;;;;;;5110666;28;20234;-72
2021/05/31 04:56:20;;;;;;;2.30;1.50;;;;;;;;;;5110049;28;20227;-72
2021/05/31 04:58:46;;;;;;;1.87;1.33;;;;;;;;;;5103619;28;20229;-69
2021/05/31 05:01:12;;;;;;;1.53;1.27;;;;;;;;;;5090116;28;20262;-69
2021/05/31 05:03:39;;;;;;;7.33;2.20;;;;;;;;;;5089915;28;20669;-70
2021/05/31 05:06:10;;;;;;;1.63;1.40;;;;;;;;;;5088227;28;20810;-69
2021/05/31 05:08:36;;;;;;;2.30;1.27;;;;;;;;;;5089757;28;20234;-73
2021/05/31 05:11:03;;;;;;;3.40;1.70;;;;;;;;;;5088803;28;20208;-70
2021/05/31 05:13:29;;;;;;;1.73;1.53;;;;;;;;;;5089666;28;20225;-71
2021/05/31 05:15:55;;;;;;;3.77;1.77;;;;;;;;;;5089170;28;20210;-71
2021/05/31 05:18:22;;;;;;;1.30;1.20;;;;;;;;;;5089514;28;20263;-69
2021/05/31 05:20:48;;;;;;;2.38;1.50;;;;;;;;;;5090082;28;20211;-70
2021/05/31 05:23:14;;;;;;;2.60;1.58;;;;;;;;;;5090088;28;20204;-70
2021/05/31 05:25:52;;;;;;;1.90;1.40;;;;;;;;;;5089016;28;20212;-70
2021/05/31 05:28:18;;;;;;;2.15;1.70;;;;;;;;;;5089541;28;20220;-70
2021/05/31 05:30:44;;;;;;;1.63;1.40;;;;;;;;;;5089400;28;20232;-70
2021/05/31 05:33:11;;;;;;;3.35;1.70;;;;;;;;;;5089762;28;20299;-70
2021/05/31 05:35:41;;;;;;;2.90;1.48;;;;;;;;;;5089239;28;20204;-69
2021/05/31 05:38:27;;;;;;;2.30;1.58;;;;;;;;;;5089545;28;20295;-69
2021/05/31 05:48:19;;;;;;;1.60;1.33;;;;;;;;;;5069174;28;20223;-68
2021/05/31 05:50:45;;;;;;;1.30;1.00;;;;;;;;;;5093447;28;20249;-69
2021/05/31 05:53:12;;;;;;;1.60;1.20;;;;;;;;;;5109907;28;20223;-69
2021/05/31 05:55:38;;;;;;;1.30;1.20;;;;;;;;;;5107864;28;20203;-69
2021/05/31 05:58:05;;;;;;;2.75;1.52;;;;;;;;;;5108352;28;20210;-69
2021/05/31 06:00:32;;;;;;;4.40;1.52;;;;;;;;;;5108525;28;20208;-69
2021/05/31 06:02:59;;;;;;;1.42;1.33;;;;;;;;;;5097278;28;20209;-68
2021/05/31 06:05:25;;;;;;;4.82;1.20;;;;;;;;;;5088851;28;20196;-68
2021/05/31 06:07:52;;;;;;;1.50;1.40;;;;;;;;;;5088872;28;20203;-69
2021/05/31 06:10:18;;;;;;;1.05;0.95;;;;;;;;;;5088884;28;20220;-71
2021/05/31 06:12:45;;;;;;;0.80;0.80;;;;;;;;;;5089174;28;20208;-69
2021/05/31 06:15:12;;;;;;;1.38;1.10;;;;;;;;;;5084636;28;20910;-69
2021/05/31 06:17:38;;;;;;;1.42;1.30;;;;;;;;;;5088901;28;20659;-67
2021/05/31 06:20:06;;;;;;;1.10;1.00;;;;;;;;;;5091638;28;20747;-67
2021/05/31 06:22:34;;;;;;;1.20;1.10;;;;;;;;;;5093008;28;20927;-67
2021/05/31 06:25:01;;;;;;;1.20;1.05;;;;;;;;;;5092256;28;20224;-67
2021/05/31 06:27:28;;;;;;;1.38;1.27;;;;;;;;;;5093104;28;20231;-67
2021/05/31 06:29:54;;;;;;;2.40;1.73;;;;;;;;;;5093112;28;20331;-68
2021/05/31 06:32:20;;;;;;;1.10;1.00;;;;;;;;;;5092613;28;20208;-68
2021/05/31 06:34:47;;;;;;;1.30;1.20;;;;;;;;;;5092657;28;20209;-67
2021/05/31 06:37:13;;;;;;;1.73;1.15;;;;;;;;;;5092368;28;20688;-67
2021/05/31 06:39:40;;;;;;;1.35;1.25;;;;;;;;;;5091787;28;20876;-67
2021/05/31 06:42:06;;;;;;;1.55;1.35;;;;;;;;;;5092762;28;20293;-67
2021/05/31 06:44:32;;;;;;;1.35;1.25;;;;;;;;;;5091643;28;20220;-67
2021/05/31 06:46:59;;;;;;;1.20;1.00;;;;;;;;;;5092547;28;20584;-68
2021/05/31 06:49:26;;;;;;;1.30;1.20;;;;;;;;;;5090749;28;20226;-67
2021/05/31 06:51:52;;;;;;;2.00;1.00;;;;;;;;;;5091354;28;20204;-67
2021/05/31 06:54:18;;;;;;;1.33;1.10;;;;;;;;;;5090725;28;20287;-66
2021/05/31 06:56:45;;;;;;;1.75;1.20;;;;;;;;;;5091520;28;20216;-66
2021/05/31 06:59:13;;;;;;;1.38;1.25;;;;;;;;;;5088632;28;20602;-67
2021/05/31 07:01:40;;;;;;;1.13;0.95;;;;;;;;;;5091697;28;20222;-66
2021/05/31 07:04:06;;;;;;;4.03;1.30;;;;;;;;;;5091803;28;20254;-67
2021/05/31 07:06:32;;;;;;;1.17;0.95;;;;;;;;;;5091280;28;20196;-67
2021/05/31 07:08:59;;;;;;;1.30;1.13;;;;;;;;;;5091811;28;20334;-68
2021/05/31 07:11:25;;;;;;;0.68;0.68;;;;;;;;;;5092291;28;20204;-66
2021/05/31 07:13:57;;;;;;;2.38;1.02;;;;;;;;;;5092068;28;20694;-67
2021/05/31 07:16:23;;;;;;;1.00;0.90;;;;;;;;;;5091535;28;20291;-69
2021/05/31 07:18:49;;;;;;;1.77;1.00;;;;;;;;;;5091554;28;20231;-69
2021/05/31 07:21:16;;;;;;;1.58;0.90;;;;;;;;;;5091507;28;20692;-69
2021/05/31 07:23:42;;;;;;;0.77;0.77;;;;;;;;;;5091751;28;20254;-71
2021/05/31 07:26:09;;;;;;;0.95;0.82;;;;;;;;;;5090841;28;20773;-69
2021/05/31 07:28:35;;;;;;;0.70;0.70;;;;;;;;;;5069894;28;20216;-70
2021/05/31 07:31:02;;;;;;;0.82;0.82;;;;;;;;;;5071257;28;20208;-71
2021/05/31 07:33:46;;;;;;;1.25;0.93;;;;;;;;;;5071249;28;20664;-70
2021/05/31 07:36:14;;;;;;;3.42;0.80;;;;;;;;;;5067685;28;20216;-70
2021/05/31 07:38:41;;;;;;;1.00;0.65;;;;;;;;;;5070316;28;20221;-70
2021/05/31 07:41:12;;;;;;;0.93;0.70;;;;;;;;;;5077353;28;20684;-69
2021/05/31 07:43:38;;;;;;;1.65;1.00;;;;;;;;;;5089548;28;20223;-70
2021/05/31 07:46:05;;;;;;;0.63;0.52;;;;;;;;;;5069871;28;20199;-70
2021/05/31 07:48:31;;;;;;;2.50;0.85;;;;;;;;;;5070466;28;20250;-70
2021/05/31 07:51:15;;;;;;;0.73;0.73;;;;;;;;;;5098156;28;20675;-70
2021/05/31 07:53:53;;;;;;;0.90;0.90;;;;;;;;;;5111293;27;20209;-69
2021/05/31 07:56:22;;;;;;;0.65;0.50;;;;;;;;;;5110342;28;20296;-70
2021/05/31 07:58:48;;;;;;;0.63;0.63;;;;;;;;;;5110746;28;20237;-69
2021/05/31 08:01:14;;;;;;;0.50;0.50;;;;;;;;;;5110111;28;20397;-69
2021/05/31 08:03:41;;;;;;;0.93;0.90;;;;;;;;;;5093021;28;20235;-70
2021/05/31 08:06:08;;;;;;;0.50;0.50;;;;;;;;;;5094511;28;20287;-69
2021/05/31 08:08:34;;;;;;;4.43;1.42;;;;;;;;;;5090715;28;20739;-69
2021/05/31 08:11:01;;;;;;;0.80;0.63;;;;;;;;;;5089062;28;20196;-69
2021/05/31 08:13:27;;;;;;;0.60;0.60;;;;;;;;;;5089907;28;20684;-70
2021/05/31 08:15:54;;;;;;;3.72;0.90;;;;;;;;;;5089562;28;20196;-70
2021/05/31 08:18:24;;;;;;;0.57;0.57;;;;;;;;;;5090101;28;20622;-69
2021/05/31 08:20:50;;;;;;;0.98;0.80;;;;;;;;;;5090231;28;20208;-70
2021/05/31 08:23:17;;;;;;;0.50;0.50;;;;;;;;;;5090263;28;20203;-70
2021/05/31 08:25:43;;;;;;;1.05;0.70;;;;;;;;;;5089211;28;20945;-71
2021/05/31 08:28:10;;;;;;;0.55;0.50;;;;;;;;;;5090411;28;20203;-70
2021/05/31 08:30:37;;;;;;;1.08;0.70;;;;;;;;;;5090427;28;20286;-70
2021/05/31 08:33:04;;;;;;;0.73;0.73;;;;;;;;;;5090074;28;20208;-70
2021/05/31 08:35:32;;;;;;;0.50;0.50;;;;;;;;;;5089040;28;20896;-70
2021/05/31 08:37:58;;;;;;;0.63;0.63;;;;;;;;;;5086235;28;20744;-72
2021/05/31 08:40:25;;;;;;;0.73;0.60;;;;;;;;;;5078211;28;20204;-71
2021/05/31 08:42:51;;;;;;;0.80;0.80;;;;;;;;;;5084352;28;20303;-72
2021/05/31 08:45:20;;;;;;;0.75;0.73;;;;;;;;;;5068723;28;20251;-72
2021/05/31 08:47:49;;;;;;;0.80;0.80;;;;;;;;;;5064061;28;20208;-72
2021/05/31 08:50:18;;;;;;;0.82;0.80;;;;;;;;;;5078816;28;20199;-71
2021/05/31 08:52:45;;;;;;;1.38;0.98;;;;;;;;;;5105397;28;20195;-71
2021/05/31 08:55:12;;;;;;;0.65;0.65;;;;;;;;;;5103627;28;20211;-72
2021/05/31 08:57:39;;;;;;;0.70;0.68;;;;;;;;;;5104175;28;20230;-71
2021/05/31 09:00:07;;;;;;;0.70;0.70;;;;;;;;;;5095341;28;20220;-70
2021/05/31 09:02:35;;;;;;;1.08;0.80;;;;;;;;;;5083798;28;20312;-70
2021/05/31 09:05:02;;;;;;;1.20;0.80;;;;;;;;;;5082964;28;20216;-70
2021/05/31 09:07:29;;;;;;;0.52;0.52;;;;;;;;;;5084399;28;20207;-70
2021/05/31 09:09:55;;;;;;;1.13;0.85;;;;;;;;;;5083640;28;20212;-72
2021/05/31 09:12:27;;;;;;;1.95;0.88;;;;;;;;;;5083504;28;20214;-71
2021/05/31 09:14:55;;;;;;;1.15;0.95;;;;;;;;;;5083023;28;20584;-71
2021/05/31 09:17:25;;;;;;;0.70;0.70;;;;;;;;;;5082791;28;20200;-71
2021/05/31 09:19:52;;;;;;;0.70;0.70;;;;;;;;;;5083997;28;20263;-71
2021/05/31 09:22:19;;;;;;;0.73;0.70;;;;;;;;;;5083923;28;20204;-70
2021/05/31 09:25:02;;;;;;;0.75;0.75;;;;;;;;;;5083470;28;20228;-70
2021/05/31 09:27:29;;;;;;;0.50;0.50;;;;;;;;;;5084126;28;20291;-70
2021/05/31 09:29:57;;;;;;;9.27;1.00;;;;;;;;;;5084299;28;20230;-70
2021/05/31 09:32:23;;;;;;;0.88;0.80;;;;;;;;;;5083387;28;20237;-70
2021/05/31 09:35:04;;;;;;;0.55;0.50;;;;;;;;;;5083297;28;20216;-71
2021/05/31 09:37:31;;;;;;;1.40;0.77;;;;;;;;;;5082110;28;20257;-71
2021/05/31 09:40:03;;;;;;;1.10;0.82;;;;;;;;;;5083922;28;20386;-70
2021/05/31 09:42:30;;;;;;;2.20;0.90;;;;;;;;;;5083674;28;20200;-71
2021/05/31 09:45:08;;;;;;;0.95;0.85;;;;;;;;;;5080227;28;20741;-71
2021/05/31 09:47:35;;;;;;;0.80;0.70;;;;;;;;;;5083415;28;20298;-71
2021/05/31 09:50:03;;;;;;;0.73;0.65;;;;;;;;;;5089372;28;20217;-73
2021/05/31 09:52:29;;;;;;;0.60;0.60;;;;;;;;;;5104396;28;20199;-72
2021/05/31 09:54:56;;;;;;;1.00;0.73;;;;;;;;;;5105020;28;20260;-72
2021/05/31 09:57:23;;;;;;;0.82;0.80;;;;;;;;;;5106401;28;20298;-71
2021/05/31 09:59:56;;;;;;;1.08;0.88;;;;;;;;;;5107821;28;20219;-71
2021/05/31 10:10:42;;;;;;;1.30;1.20;;;;;;;;;;5087233;28;20303;-72
2021/05/31 10:13:08;;;;;;;4.65;1.73;;;;;;;;;;5086893;28;20219;-73
2021/05/31 10:15:36;;;;;;;1.10;0.88;;;;;;;;;;5085880;28;20204;-71
2021/05/31 10:18:04;;;;;;;1.40;0.90;;;;;;;;;;5085247;28;20251;-71
2021/05/31 10:20:31;;;;;;;0.82;0.75;;;;;;;;;;5085913;28;20744;-72
2021/05/31 10:23:01;;;;;;;1.42;1.00;;;;;;;;;;5085682;28;20584;-72
2021/05/31 10:25:28;;;;;;;1.55;0.98;;;;;;;;;;5085723;28;20314;-71
2021/05/31 10:27:56;;;;;;;1.00;0.70;;;;;;;;;;5083921;28;20291;-71
2021/05/31 10:30:22;;;;;;;0.70;0.70;;;;;;;;;;5085861;28;20304;-72
2021/05/31 10:32:50;;;;;;;0.82;0.82;;;;;;;;;;5084412;28;20309;-71
2021/05/31 10:35:18;;;;;;;0.80;0.80;;;;;;;;;;5084199;28;20243;-72
2021/05/31 10:37:52;;;;;;;0.70;0.70;;;;;;;;;;5086161;28;20200;-72
2021/05/31 10:40:19;;;;;;;0.80;0.70;;;;;;;;;;5084929;28;20220;-72
2021/05/31 10:42:46;;;;;;;1.05;0.82;;;;;;;;;;5083583;28;20291;-71
2021/05/31 10:45:24;;;;;;;1.15;0.93;;;;;;;;;;5069200;28;20308;-71
2021/05/31 10:48:09;;;;;;;12.75;1.50;;;;;;;;;;5063464;28;20829;-70
2021/05/31 10:50:48;;;;;;;1.27;1.00;;;;;;;;;;5083982;28;20851;-69
2021/05/31 10:53:18;;;;;;;1.05;0.95;;;;;;;;;;5087724;28;20218;-70
2021/05/31 10:55:52;;;;;;;0.90;0.80;;;;;;;;;;5087588;28;20295;-71
2021/05/31 10:58:23;;;;;;;1.30;0.98;;;;;;;;;;5088795;28;20227;-68
2021/05/31 11:01:00;;;;;;;0.95;0.80;;;;;;;;;;5087160;28;20208;-69
2021/05/31 11:03:28;;;;;;;1.48;0.98;;;;;;;;;;5089012;28;20196;-69
2021/05/31 11:05:55;;;;;;;0.68;0.68;;;;;;;;;;5085543;28;20221;-69
2021/05/31 11:08:26;;;;;;;1.52;1.00;;;;;;;;;;5086411;28;20221;-69
2021/05/31 11:10:53;;;;;;;0.70;0.70;;;;;;;;;;5089094;28;20201;-69
2021/05/31 11:13:20;;;;;;;1.25;1.15;;;;;;;;;;5088966;28;20288;-69
2021/05/31 11:16:05;;;;;;;0.85;0.75;;;;;;;;;;5088548;28;20214;-69
2021/05/31 11:18:41;;;;;;;1.80;0.95;;;;;;;;;;5088980;28;20255;-69
2021/05/31 11:21:08;;;;;;;3.38;1.02;;;;;;;;;;5088847;28;20212;-69
2021/05/31 11:23:36;;;;;;;1.52;1.08;;;;;;;;;;5088747;28;20229;-69
2021/05/31 11:26:02;;;;;;;1.30;0.90;;;;;;;;;;5087799;28;20234;-70
2021/05/31 11:28:29;;;;;;;0.80;0.80;;;;;;;;;;5075452;28;21006;-70
2021/05/31 11:30:55;;;;;;;0.82;0.80;;;;;;;;;;5082934;28;20786;-71
2021/05/31 11:33:22;;;;;;;1.45;1.02;;;;;;;;;;5080917;28;20284;-70
2021/05/31 11:35:48;;;;;;;0.60;0.60;;;;;;;;;;5073391;28;20216;-70
2021/05/31 11:38:17;;;;;;;1.30;0.90;;;;;;;;;;5074972;28;20264;-69
2021/05/31 11:40:43;;;;;;;1.00;0.80;;;;;;;;;;5082051;28;20609;-69
2021/05/31 11:43:13;;;;;;;0.93;0.73;;;;;;;;;;5082051;28;20196;-69
2021/05/31 11:45:45;;;;;;;0.90;0.90;;;;;;;;;;5081368;28;20319;-69
2021/05/31 11:48:16;;;;;;;1.10;0.90;;;;;;;;;;5083435;28;20228;-69
2021/05/31 11:50:44;;;;;;;1.23;1.13;;;;;;;;;;5085406;28;20210;-70
2021/05/31 11:53:12;;;;;;;2.13;0.80;;;;;;;;;;5082639;28;20196;-69
2021/05/31 11:55:39;;;;;;;1.55;1.00;;;;;;;;;;5082000;28;20223;-68
2021/05/31 11:58:06;;;;;;;3.13;1.20;;;;;;;;;;5083756;28;20212;-68
2021/05/31 12:00:34;;;;;;;1.02;0.88;;;;;;;;;;5080948;28;20375;-68
2021/05/31 12:03:01;;;;;;;1.00;0.90;;;;;;;;;;5080578;28;20258;-68
2021/05/31 12:05:29;;;;;;;1.00;0.88;;;;;;;;;;5082202;28;20256;-71
2021/05/31 12:08:00;;;;;;;1.23;1.00;;;;;;;;;;5082831;28;20277;-71
2021/05/31 12:10:27;;;;;;;1.48;1.02;;;;;;;;;;5080872;28;20209;-70
2021/05/31 12:12:53;;;;;;;1.00;0.90;;;;;;;;;;5082372;28;20215;-68
2021/05/31 12:15:19;;;;;;;0.63;0.63;;;;;;;;;;5081683;28;20235;-71
2021/05/31 12:17:47;;;;;;;1.88;1.00;;;;;;;;;;5081382;28;20942;-71
2021/05/31 12:20:14;;;;;;;1.02;0.70;;;;;;;;;;5082446;28;20225;-69
2021/05/31 12:22:41;;;;;;;1.15;1.02;;;;;;;;;;5081248;28;20215;-70
2021/05/31 12:25:09;;;;;;;0.80;0.80;;;;;;;;;;5075837;28;20591;-69
2021/05/31 12:27:39;;;;;;;1.30;1.00;;;;;;;;;;5076143;28;20260;-68
2021/05/31 12:30:12;;;;;;;1.73;1.15;;;;;;;;;;5078746;28;20212;-69
2021/05/31 12:32:38;;;;;;;0.90;0.68;;;;;;;;;;5082212;28;20212;-71
2021/05/31 12:35:05;;;;;;;0.70;0.70;;;;;;;;;;5080749;28;20214;-72
2021/05/31 12:37:34;;;;;;;1.83;1.13;;;;;;;;;;5082222;28;20722;-67
2021/05/31 12:40:06;;;;;;;1.23;0.73;;;;;;;;;;5080930;28;20224;-70
2021/05/31 12:42:33;;;;;;;1.20;1.00;;;;;;;;;;5077935;28;20208;-70
2021/05/31 12:45:01;;;;;;;1.40;1.10;;;;;;;;;;5079490;28;21125;-69
2021/05/31 12:47:31;;;;;;;1.85;1.20;;;;;;;;;;5082191;28;20307;-69
2021/05/31 12:49:59;;;;;;;0.88;0.80;;;;;;;;;;5086692;28;20303;-69
2021/05/31 12:52:30;;;;;;;1.15;1.05;;;;;;;;;;5100387;28;20196;-69
2021/05/31 12:55:00;;;;;;;1.20;0.80;;;;;;;;;;5100862;28;20235;-71
2021/05/31 12:57:30;;;;;;;1.55;1.23;;;;;;;;;;5103156;28;20218;-71
2021/05/31 12:59:57;;;;;;;3.70;1.02;;;;;;;;;;5102612;28;20222;-71
2021/05/31 13:02:23;;;;;;;4.22;0.80;;;;;;;;;;5102087;28;20206;-71
2021/05/31 13:05:01;;;;;;;1.60;1.30;;;;;;;;;;5095618;28;20288;-69
2021/05/31 13:07:30;;;;;;;1.00;0.80;;;;;;;;;;5081196;28;20276;-69
2021/05/31 13:10:17;;;;;;;0.90;0.77;;;;;;;;;;5081926;28;20284;-67
2021/05/31 13:12:47;;;;;;;1.10;0.73;;;;;;;;;;5081293;28;20211;-68
2021/05/31 13:15:13;;;;;;;1.52;1.00;;;;;;;;;;5080474;28;20234;-68
2021/05/31 13:17:40;;;;;;;3.65;1.13;;;;;;;;;;5080893;28;20299;-69
2021/05/31 13:20:10;;;;;;;1.33;0.70;;;;;;;;;;5080646;28;20296;-70
2021/05/31 13:22:37;;;;;;;0.65;0.65;;;;;;;;;;5083089;28;20214;-70
2021/05/31 13:25:04;;;;;;;0.98;0.80;;;;;;;;;;5084007;28;20342;-69
2021/05/31 13:27:33;;;;;;;1.20;1.00;;;;;;;;;;5085138;28;20204;-67
2021/05/31 13:30:09;;;;;;;0.98;0.80;;;;;;;;;;5084488;28;20225;-69
2021/05/31 13:32:36;;;;;;;0.88;0.73;;;;;;;;;;5082768;28;20208;-69
2021/05/31 13:35:06;;;;;;;1.38;0.90;;;;;;;;;;5084773;28;20208;-69
2021/05/31 13:37:43;;;;;;;1.00;0.90;;;;;;;;;;5085350;28;20707;-69
2021/05/31 13:40:10;;;;;;;1.40;1.20;;;;;;;;;;5086207;28;20345;-69
2021/05/31 13:42:46;;;;;;;1.15;0.90;;;;;;;;;;5085930;28;20302;-69
2021/05/31 13:45:13;;;;;;;0.85;0.82;;;;;;;;;;5070470;28;20307;-69
2021/05/31 13:47:39;;;;;;;2.33;1.10;;;;;;;;;;5065674;28;20760;-69
2021/05/31 13:50:06;;;;;;;2.63;0.82;;;;;;;;;;5078828;28;20224;-69
2021/05/31 13:52:32;;;;;;;1.20;1.10;;;;;;;;;;5100253;28;20207;-69
2021/05/31 13:55:02;;;;;;;1.10;1.00;;;;;;;;;;5085274;28;20208;-69
2021/05/31 13:57:28;;;;;;;1.08;0.98;;;;;;;;;;5086377;28;20296;-69
2021/05/31 13:59:55;;;;;;;1.55;0.88;;;;;;;;;;5086299;28;20213;-69
2021/05/31 14:02:21;;;;;;;4.60;1.33;;;;;;;;;;5086261;28;20196;-69
2021/05/31 14:04:48;;;;;;;1.08;0.85;;;;;;;;;;5085198;28;20193;-69
2021/05/31 14:07:14;;;;;;;1.85;0.98;;;;;;;;;;5086095;28;20251;-69
2021/05/31 14:09:40;;;;;;;1.05;0.80;;;;;;;;;;5085146;28;20323;-69
2021/05/31 14:12:07;;;;;;;0.98;0.80;;;;;;;;;;5085154;28;20882;-69
2021/05/31 14:14:33;;;;;;;0.82;0.82;;;;;;;;;;5084828;28;20215;-69
2021/05/31 14:17:00;;;;;;;0.95;0.80;;;;;;;;;;5085609;28;20205;-69
2021/05/31 14:19:26;;;;;;;2.33;0.70;;;;;;;;;;5085078;28;20220;-69
2021/05/31 14:21:53;;;;;;;0.85;0.82;;;;;;;;;;5085467;28;20281;-67
2021/05/31 14:24:19;;;;;;;1.90;1.30;;;;;;;;;;5084598;28;20239;-70
2021/05/31 14:26:46;;;;;;;1.58;1.10;;;;;;;;;;5084772;28;20216;-70
2021/05/31 14:29:12;;;;;;;1.52;1.13;;;;;;;;;;5084914;28;20719;-70
2021/05/31 14:31:39;;;;;;;3.25;0.98;;;;;;;;;;5083195;28;20235;-69
2021/05/31 14:34:05;;;;;;;1.33;1.20;;;;;;;;;;5085024;28;20321;-70
2021/05/31 14:36:32;;;;;;;2.20;1.17;;;;;;;;;;5084147;28;20680;-70
2021/05/31 14:38:58;;;;;;;1.13;1.00;;;;;;;;;;5085036;28;20891;-69
2021/05/31 14:41:25;;;;;;;1.15;1.05;;;;;;;;;;5088150;28;20201;-69
2021/05/31 14:43:52;;;;;;;0.88;0.80;;;;;;;;;;5086016;28;20289;-69
2021/05/31 14:46:18;;;;;;;1.58;0.93;;;;;;;;;;5067329;28;20256;-67
2021/05/31 14:48:47;;;;;;;0.60;0.60;;;;;;;;;;5067774;28;20222;-69
2021/05/31 14:51:14;;;;;;;1.63;0.90;;;;;;;;;;5100226;28;20200;-66
2021/05/31 14:53:41;;;;;;;1.08;0.90;;;;;;;;;;5101500;28;20207;-66
2021/05/31 14:56:08;;;;;;;0.75;0.70;;;;;;;;;;5087977;28;20205;-66
2021/05/31 14:58:35;;;;;;;1.13;0.80;;;;;;;;;;5088848;28;20805;-69
2021/05/31 15:01:02;;;;;;;1.65;1.00;;;;;;;;;;5088397;28;20216;-68
2021/05/31 15:03:28;;;;;;;2.00;1.00;;;;;;;;;;5088452;28;20287;-68
2021/05/31 15:05:55;;;;;;;0.70;0.70;;;;;;;;;;5085956;28;20216;-68
2021/05/31 15:08:21;;;;;;;0.93;0.85;;;;;;;;;;5088164;28;20234;-68
2021/05/31 15:10:49;;;;;;;0.95;0.77;;;;;;;;;;5087672;28;20722;-68
2021/05/31 15:13:16;;;;;;;1.27;1.08;;;;;;;;;;5087706;28;20214;-68
2021/05/31 15:15:43;;;;;;;1.77;1.00;;;;;;;;;;5087246;28;20204;-68
2021/05/31 15:18:09;;;;;;;1.25;1.15;;;;;;;;;;5087398;28;20561;-67
2021/05/31 15:20:35;;;;;;;1.00;0.90;;;;;;;;;;5087862;28;20205;-66
2021/05/31 15:23:02;;;;;;;2.72;1.30;;;;;;;;;;5088106;28;20196;-67
2021/05/31 15:25:29;;;;;;;0.68;0.60;;;;;;;;;;5087495;28;20204;-68
2021/05/31 15:27:55;;;;;;;1.15;0.68;;;;;;;;;;5087402;28;20204;-68
2021/05/31 15:30:22;;;;;;;5.97;1.48;;;;;;;;;;5087540;28;20208;-67
2021/05/31 15:32:48;;;;;;;1.15;1.00;;;;;;;;;;5087206;28;20213;-67
2021/05/31 15:35:15;;;;;;;0.93;0.70;;;;;;;;;;5084966;28;20289;-68
2021/05/31 15:37:42;;;;;;;2.55;0.68;;;;;;;;;;5087337;28;20327;-69
2021/05/31 15:40:11;;;;;;;2.25;1.23;;;;;;;;;;5087682;28;20225;-69